createdAt,value
2022-10-16T00:01:22.726Z,98432.41
2022-10-16T00:03:51.745Z,98435.66
2022-10-16T00:06:22.293Z,98434.69
2022-10-16T00:08:52.148Z,98432.34
2022-10-16T00:11:22.279Z,98436.34
2022-10-16T00:13:52.974Z,98436.78
2022-10-16T00:16:22.324Z,98432.50
2022-10-16T00:18:50.291Z,98438.69
2022-10-16T00:21:21.838Z,98444.72
2022-10-16T00:23:53.977Z,98450.38
2022-10-16T00:26:22.507Z,98450.91
2022-10-16T00:28:51.347Z,98448.94
2022-10-16T00:31:21.003Z,98451.13
2022-10-16T00:33:49.253Z,98457.81
2022-10-16T00:36:19.625Z,98464.69
2022-10-16T00:38:48.238Z,98463.03
2022-10-16T00:41:19.208Z,98459.19
2022-10-16T00:43:48.716Z,98454.44
2022-10-16T00:46:21.125Z,98467.09
2022-10-16T00:48:54.769Z,98474.50
2022-10-16T00:51:27.680Z,98479.34
2022-10-16T00:53:57.218Z,98472.22
2022-10-16T00:56:26.624Z,98465.38
2022-10-16T00:58:54.695Z,98468.16
2022-10-16T01:01:23.088Z,98471.19
2022-10-16T01:03:51.099Z,98479.56
2022-10-16T01:09:16.136Z,98481.66
2022-10-16T01:11:56.392Z,98472.53
2022-10-16T01:14:34.223Z,98480.44
2022-10-16T01:17:07.512Z,98479.50
2022-10-16T01:19:50.774Z,98474.91
2022-10-16T01:22:22.104Z,98474.69
2022-10-16T01:24:51.930Z,98474.16
2022-10-16T01:27:26.184Z,98465.78
2022-10-16T01:29:58.628Z,98473.56
2022-10-16T01:32:34.791Z,98460.91
2022-10-16T01:35:08.043Z,98473.56
2022-10-16T01:37:40.704Z,98476.53
2022-10-16T01:40:14.075Z,98480.59
2022-10-16T01:42:46.622Z,98484.38
2022-10-16T01:45:19.513Z,98482.56
2022-10-16T01:47:48.980Z,98486.44
2022-10-16T01:50:20.165Z,98488.22
2022-10-16T01:52:51.843Z,98491.47
2022-10-16T01:55:24.923Z,98493.03
2022-10-16T01:57:55.904Z,98485.41
2022-10-16T02:00:25.805Z,98492.88
2022-10-16T02:02:56.263Z,98496.72
2022-10-16T02:05:28.473Z,98497.25
2022-10-16T02:07:58.480Z,98489.31
2022-10-16T02:10:32.323Z,98496.94
2022-10-16T02:13:07.577Z,98491.97
2022-10-16T02:15:35.667Z,98492.09
2022-10-16T02:18:04.512Z,98492.47
2022-10-16T02:20:36.768Z,98491.91
2022-10-16T02:23:05.729Z,98494.81
2022-10-16T02:25:37.096Z,98490.75
2022-10-16T02:28:13.641Z,98494.06
2022-10-16T02:30:45.883Z,98493.34
2022-10-16T02:33:16.463Z,98490.53
2022-10-16T02:35:47.054Z,98499.66
2022-10-16T02:38:16.565Z,98498.69
2022-10-16T02:40:45.104Z,98488.50
2022-10-16T02:43:15.186Z,98493.09
2022-10-16T02:45:43.141Z,98500.72
2022-10-16T02:48:11.500Z,98494.88
2022-10-16T02:50:39.507Z,98490.59
2022-10-16T02:53:07.461Z,98488.09
2022-10-16T02:55:35.477Z,98495.72
2022-10-16T02:58:03.510Z,98494.72
2022-10-16T03:00:32.934Z,98496.56
2022-10-16T03:03:01.016Z,98493.47
2022-10-16T03:05:29.079Z,98506.75
2022-10-16T03:07:57.073Z,98512.56
2022-10-16T03:10:25.133Z,98501.44
2022-10-16T03:12:53.104Z,98503.75
2022-10-16T03:15:21.331Z,98501.94
2022-10-16T03:17:50.677Z,98498.97
2022-10-16T03:20:18.601Z,98501.22
2022-10-16T03:22:46.605Z,98496.88
2022-10-16T03:25:14.827Z,98497.78
2022-10-16T03:27:42.787Z,98504.28
2022-10-16T03:30:12.065Z,98509.41
2022-10-16T03:32:40.074Z,98505.34
2022-10-16T03:35:10.242Z,98512.09
2022-10-16T03:37:38.365Z,98516.03
2022-10-16T03:40:07.044Z,98523.06
2022-10-16T03:42:34.997Z,98518.69
2022-10-16T03:45:03.084Z,98529.06
2022-10-16T03:47:31.064Z,98534.09
2022-10-16T03:49:59.122Z,98534.09
2022-10-16T03:52:28.546Z,98543.63
2022-10-16T03:54:56.786Z,98544.38
2022-10-16T03:57:25.048Z,98549.88
2022-10-16T03:59:53.349Z,98542.72
2022-10-16T04:02:21.319Z,98552.13
2022-10-16T04:04:49.335Z,98554.59
2022-10-16T04:07:17.335Z,98551.03
2022-10-16T04:09:46.774Z,98553.50
2022-10-16T04:12:14.756Z,98555.81
2022-10-16T04:14:42.805Z,98555.34
2022-10-16T04:17:10.787Z,98556.28
2022-10-16T04:19:38.801Z,98558.00
2022-10-16T04:22:06.850Z,98556.81
2022-10-16T04:24:34.790Z,98555.25
2022-10-16T04:27:04.226Z,98557.47
2022-10-16T04:29:32.286Z,98552.13
2022-10-16T04:32:00.268Z,98566.38
2022-10-16T04:34:28.211Z,98553.94
2022-10-16T04:36:56.423Z,98554.13
2022-10-16T04:39:24.450Z,98562.06
2022-10-16T04:41:52.474Z,98556.97
2022-10-16T04:44:21.867Z,98556.94
2022-10-16T04:46:49.934Z,98564.25
2022-10-16T04:49:17.904Z,98562.75
2022-10-16T04:51:45.878Z,98563.34
2022-10-16T04:54:13.928Z,98565.09
2022-10-16T04:56:47.661Z,98569.19
2022-10-16T04:59:16.210Z,98564.91
2022-10-16T05:01:45.741Z,98572.78
2022-10-16T05:04:16.006Z,98577.13
2022-10-16T05:06:44.577Z,98585.78
2022-10-16T05:09:12.546Z,98582.50
2022-10-16T05:11:40.504Z,98581.81
2022-10-16T05:14:08.530Z,98577.06
2022-10-16T05:16:36.515Z,98581.06
2022-10-16T05:21:53.890Z,98571.69
2022-10-16T05:24:21.882Z,98568.66
2022-10-16T05:26:50.068Z,98575.78
2022-10-16T05:29:17.992Z,98582.91
2022-10-16T05:31:45.963Z,98586.69
2022-10-16T05:34:15.356Z,98590.75
2022-10-16T05:36:43.392Z,98590.25
2022-10-16T05:39:11.334Z,98587.44
2022-10-16T05:41:39.358Z,98593.56
2022-10-16T05:44:07.687Z,98588.22
2022-10-16T05:46:35.859Z,98594.53
2022-10-16T05:49:04.091Z,98594.25
2022-10-16T05:51:33.496Z,98592.50
2022-10-16T05:54:01.444Z,98587.69
2022-10-16T05:56:29.656Z,98593.31
2022-10-16T05:58:57.781Z,98593.25
2022-10-16T06:01:26.092Z,98589.19
2022-10-16T06:03:55.016Z,98585.13
2022-10-16T06:06:27.554Z,98603.03
2022-10-16T06:08:58.335Z,98597.25
2022-10-16T06:11:28.036Z,98604.53
2022-10-16T06:13:57.630Z,98615.16
2022-10-16T06:16:26.659Z,98611.66
2022-10-16T06:18:56.833Z,98620.75
2022-10-16T06:21:26.810Z,98632.19
2022-10-16T06:23:56.846Z,98631.16
2022-10-16T06:26:26.404Z,98632.16
2022-10-16T06:28:56.072Z,98641.25
2022-10-16T06:31:28.317Z,98645.25
2022-10-16T06:33:57.235Z,98645.47
2022-10-16T06:36:26.441Z,98654.31
2022-10-16T06:38:54.510Z,98659.38
2022-10-16T06:41:25.036Z,98651.97
2022-10-16T06:43:53.291Z,98659.84
2022-10-16T06:46:23.725Z,98665.09
2022-10-16T06:48:51.965Z,98671.88
2022-10-16T06:51:21.667Z,98673.59
2022-10-16T06:54:06.389Z,98670.94
2022-10-16T06:56:36.325Z,98681.66
2022-10-16T06:59:05.107Z,98671.66
2022-10-16T07:01:33.635Z,98681.69
2022-10-16T07:04:03.016Z,98683.59
2022-10-16T07:06:34.043Z,98678.06
2022-10-16T07:09:04.382Z,98680.44
2022-10-16T07:11:32.452Z,98678.03
2022-10-16T07:14:01.749Z,98688.81
2022-10-16T07:16:31.415Z,98681.63
2022-10-16T07:19:01.080Z,98689.88
2022-10-16T07:21:31.071Z,98686.41
2022-10-16T07:24:02.256Z,98690.78
2022-10-16T07:26:32.925Z,98694.34
2022-10-16T07:29:02.847Z,98694.47
2022-10-16T07:31:31.189Z,98694.59
2022-10-16T07:34:00.790Z,98695.59
2022-10-16T07:36:28.973Z,98694.31
2022-10-16T07:38:59.788Z,98699.97
2022-10-16T07:41:28.635Z,98688.88
2022-10-16T07:43:57.520Z,98690.06
2022-10-16T07:46:26.892Z,98693.47
2022-10-16T07:48:55.034Z,98691.81
2022-10-16T07:51:24.581Z,98695.97
2022-10-16T07:53:53.202Z,98697.88
2022-10-16T07:56:22.229Z,98694.72
2022-10-16T07:58:51.434Z,98701.66
2022-10-16T08:01:20.369Z,98704.66
2022-10-16T08:03:51.665Z,98704.84
2022-10-16T08:06:23.474Z,98710.47
2022-10-16T08:08:55.027Z,98710.38
2022-10-16T08:11:23.025Z,98711.41
2022-10-16T08:13:51.064Z,98715.44
2022-10-16T08:16:19.120Z,98709.06
2022-10-16T08:18:47.140Z,98718.53
2022-10-16T08:21:20.491Z,98720.97
2022-10-16T08:23:54.516Z,98724.06
2022-10-16T08:26:26.636Z,98719.28
2022-10-16T08:28:54.683Z,98718.69
2022-10-16T08:31:23.669Z,98719.66
2022-10-16T08:33:52.405Z,98719.88
2022-10-16T08:36:21.871Z,98718.56
2022-10-16T08:38:51.682Z,98720.66
2022-10-16T08:41:49.315Z,98722.47
2022-10-16T08:44:38.247Z,98720.41
2022-10-16T08:47:19.503Z,98727.84
2022-10-16T08:49:57.562Z,98730.31
2022-10-16T08:52:31.065Z,98727.53
2022-10-16T08:54:59.438Z,98725.75
2022-10-16T08:57:28.592Z,98731.75
2022-10-16T09:00:01.340Z,98731.28
2022-10-16T09:02:34.660Z,98726.22
2022-10-16T09:05:23.863Z,98726.78
2022-10-16T09:08:04.616Z,98735.53
2022-10-16T09:10:46.686Z,98735.88
2022-10-16T09:13:21.963Z,98732.88
2022-10-16T09:15:55.653Z,98735.81
2022-10-16T09:18:32.793Z,98736.81
2022-10-16T09:21:09.461Z,98744.94
2022-10-16T09:23:40.111Z,98743.84
2022-10-16T09:26:14.003Z,98743.34
2022-10-16T09:28:42.395Z,98743.09
2022-10-16T09:31:17.540Z,98748.72
2022-10-16T09:33:47.779Z,98743.13
2022-10-16T09:36:16.286Z,98745.19
2022-10-16T09:38:45.797Z,98739.94
2022-10-16T09:41:20.111Z,98744.75
2022-10-16T09:43:55.810Z,98747.31
2022-10-16T09:46:28.349Z,98748.22
2022-10-16T09:48:58.352Z,98740.19
2022-10-16T09:51:28.562Z,98752.31
2022-10-16T09:54:00.212Z,98746.56
2022-10-16T09:56:30.912Z,98747.38
2022-10-16T09:59:00.881Z,98745.16
2022-10-16T10:01:33.686Z,98742.59
2022-10-16T10:04:04.605Z,98746.44
2022-10-16T10:06:35.258Z,98747.66
2022-10-16T10:09:18.234Z,98754.25
2022-10-16T10:11:50.117Z,98750.75
2022-10-16T10:14:26.977Z,98751.09
2022-10-16T10:17:10.575Z,98755.88
2022-10-16T10:19:43.278Z,98762.75
2022-10-16T10:22:25.497Z,98753.38
2022-10-16T10:25:15.169Z,98753.41
2022-10-16T10:27:54.131Z,98754.94
2022-10-16T10:30:26.623Z,98760.25
2022-10-16T10:33:12.226Z,98754.97
2022-10-16T10:35:47.330Z,98755.16
2022-10-16T10:38:29.348Z,98752.91
2022-10-16T10:41:15.900Z,98754.03
2022-10-16T10:43:57.232Z,98757.22
2022-10-16T10:46:34.128Z,98749.31
2022-10-16T10:49:38.538Z,98751.97
2022-10-16T10:52:25.931Z,98747.81
2022-10-16T10:55:02.603Z,98740.44
2022-10-16T10:57:39.539Z,98737.09
2022-10-16T11:00:22.541Z,98745.84
2022-10-16T11:03:01.685Z,98732.25
2022-10-16T11:05:44.550Z,98735.88
2022-10-16T11:08:19.512Z,98733.72
2022-10-16T11:10:55.428Z,98739.78
2022-10-16T11:13:32.911Z,98735.22
2022-10-16T11:16:04.971Z,98736.75
2022-10-16T11:18:42.477Z,98740.31
2022-10-16T11:21:15.065Z,98744.19
2022-10-16T11:23:47.348Z,98739.94
2022-10-16T11:26:20.937Z,98728.63
2022-10-16T11:28:52.878Z,98735.44
2022-10-16T11:31:31.062Z,98742.97
2022-10-16T11:34:05.138Z,98740.19
2022-10-16T11:36:38.690Z,98739.22
2022-10-16T11:39:20.573Z,98736.59
2022-10-16T11:41:52.596Z,98741.34
2022-10-16T11:44:50.417Z,98741.28
2022-10-16T11:47:53.762Z,98747.72
2022-10-16T11:50:24.922Z,98731.25
2022-10-16T11:52:59.277Z,98738.22
2022-10-16T11:55:33.239Z,98739.34
2022-10-16T11:58:06.026Z,98735.44
2022-10-16T12:00:42.259Z,98741.59
2022-10-16T12:03:19.743Z,98735.72
2022-10-16T12:06:00.664Z,98741.56
2022-10-16T12:08:29.630Z,98745.75
2022-10-16T12:11:09.275Z,98743.44
2022-10-16T12:13:39.262Z,98737.66
2022-10-16T12:16:23.742Z,98740.69
2022-10-16T12:18:52.288Z,98737.28
2022-10-16T12:21:21.061Z,98742.47
2022-10-16T12:23:51.428Z,98742.63
2022-10-16T12:26:27.210Z,98737.66
2022-10-16T12:28:56.128Z,98737.22
2022-10-16T12:31:25.750Z,98736.09
2022-10-16T12:34:01.779Z,98733.56
2022-10-16T12:36:32.273Z,98747.84
2022-10-16T12:39:01.456Z,98745.75
2022-10-16T12:41:31.316Z,98741.81
2022-10-16T12:44:02.267Z,98738.25
2022-10-16T12:46:41.304Z,98739.94
2022-10-16T12:49:25.491Z,98737.50
2022-10-16T12:51:53.909Z,98743.13
2022-10-16T12:54:31.242Z,98747.03
2022-10-16T12:57:29.271Z,98750.28
2022-10-16T13:00:05.333Z,98751.59
2022-10-16T13:03:13.699Z,98755.66
2022-10-16T13:05:54.105Z,98758.66
2022-10-16T13:08:40.432Z,98760.00
2022-10-16T13:11:19.788Z,98761.53
2022-10-16T13:14:03.543Z,98767.53
2022-10-16T13:16:45.021Z,98766.81
2022-10-16T13:19:23.721Z,98756.47
2022-10-16T13:22:04.727Z,98759.88
2022-10-16T13:24:48.420Z,98772.59
2022-10-16T13:27:27.772Z,98767.00
2022-10-16T13:30:03.797Z,98769.53
2022-10-16T13:32:33.119Z,98772.44
2022-10-16T13:35:03.153Z,98778.81
2022-10-16T13:37:31.248Z,98777.06
2022-10-16T13:40:19.914Z,98778.34
2022-10-16T13:42:48.133Z,98777.41
2022-10-16T13:45:24.140Z,98775.28
2022-10-16T13:47:52.296Z,98776.13
2022-10-16T13:50:21.620Z,98788.06
2022-10-16T13:52:50.588Z,98787.38
2022-10-16T13:55:20.469Z,98786.88
2022-10-16T13:57:48.489Z,98788.91
2022-10-16T14:00:22.183Z,98798.38
2022-10-16T14:02:57.678Z,98796.75
2022-10-16T14:05:27.279Z,98801.22
2022-10-16T14:07:56.858Z,98791.38
2022-10-16T14:10:27.986Z,98793.50
2022-10-16T14:13:01.720Z,98793.56
2022-10-16T14:15:31.294Z,98789.41
2022-10-16T14:18:00.718Z,98804.47
2022-10-16T14:20:32.558Z,98804.25
2022-10-16T14:23:02.421Z,98795.28
2022-10-16T14:25:32.730Z,98800.66
2022-10-16T14:28:06.671Z,98788.28
2022-10-16T14:30:36.980Z,98792.72
2022-10-16T14:33:07.543Z,98797.16
2022-10-16T14:35:39.574Z,98797.47
2022-10-16T14:38:18.268Z,98792.16
2022-10-16T14:40:50.635Z,98798.19
2022-10-16T14:43:23.754Z,98791.84
2022-10-16T14:45:55.538Z,98788.38
2022-10-16T14:48:23.972Z,98788.28
2022-10-16T14:50:53.658Z,98795.22
2022-10-16T14:53:21.739Z,98786.94
2022-10-16T14:55:50.473Z,98785.97
2022-10-16T14:58:21.128Z,98782.34
2022-10-16T15:00:49.504Z,98783.88
2022-10-16T15:03:17.940Z,98781.78
2022-10-16T15:05:46.042Z,98794.63
2022-10-16T15:08:15.778Z,98803.28
2022-10-16T15:10:46.200Z,98801.22
2022-10-16T15:13:14.926Z,98801.81
2022-10-16T15:15:45.741Z,98810.09
2022-10-16T15:18:15.792Z,98809.34
2022-10-16T15:20:44.291Z,98820.41
2022-10-16T15:23:18.335Z,98830.06
2022-10-16T15:25:47.994Z,98822.88
2022-10-16T15:28:17.199Z,98820.81
2022-10-16T15:30:46.337Z,98817.69
2022-10-16T15:33:16.950Z,98825.00
2022-10-16T15:35:48.031Z,98833.41
2022-10-16T15:38:18.583Z,98826.25
2022-10-16T15:40:47.652Z,98830.66
2022-10-16T15:43:15.785Z,98842.50
2022-10-16T15:45:43.782Z,98846.41
2022-10-16T15:48:13.923Z,98837.47
2022-10-16T15:53:12.330Z,98841.06
2022-10-16T15:55:41.787Z,98841.00
2022-10-16T15:58:10.365Z,98843.38
2022-10-16T16:00:38.711Z,98846.84
2022-10-16T16:03:06.683Z,98849.31
2022-10-16T16:05:36.356Z,98847.50
2022-10-16T16:08:04.344Z,98849.50
2022-10-16T16:10:32.377Z,98846.97
2022-10-16T16:13:01.828Z,98852.50
2022-10-16T16:15:29.775Z,98839.00
2022-10-16T16:17:58.016Z,98839.84
2022-10-16T16:20:26.011Z,98845.03
2022-10-16T16:22:54.007Z,98849.78
2022-10-16T16:25:22.488Z,98852.13
2022-10-16T16:27:50.460Z,98853.38
2022-10-16T16:30:24.777Z,98860.97
2022-10-16T16:32:55.352Z,98869.75
2022-10-16T16:35:23.601Z,98875.06
2022-10-16T16:37:51.633Z,98882.19
2022-10-16T16:40:19.717Z,98883.59
2022-10-16T16:42:49.843Z,98895.50
2022-10-16T16:45:19.381Z,98887.06
2022-10-16T16:47:47.538Z,98899.28
2022-10-16T16:50:15.755Z,98904.03
2022-10-16T16:52:43.809Z,98908.25
2022-10-16T16:55:11.716Z,98901.22
2022-10-16T16:57:39.685Z,98902.41
2022-10-16T17:00:08.779Z,98906.72
2022-10-16T17:02:38.226Z,98907.59
2022-10-16T17:05:06.822Z,98907.69
2022-10-16T17:07:35.602Z,98903.09
2022-10-16T17:10:03.887Z,98900.59
2022-10-16T17:12:31.989Z,98915.72
2022-10-16T17:14:59.989Z,98930.41
2022-10-16T17:17:28.329Z,98937.06
2022-10-16T17:19:57.803Z,98935.69
2022-10-16T17:22:26.039Z,98929.81
2022-10-16T17:24:54.876Z,98931.00
2022-10-16T17:27:23.714Z,98927.88
2022-10-16T17:29:53.253Z,98931.88
2022-10-16T17:32:21.966Z,98942.25
2022-10-16T17:34:49.910Z,98955.75
2022-10-16T17:37:19.331Z,98947.78
2022-10-16T17:39:47.398Z,98946.44
2022-10-16T17:42:15.435Z,98945.22
2022-10-16T17:44:43.510Z,98957.56
2022-10-16T17:47:11.612Z,98951.66
2022-10-16T17:49:39.975Z,98955.97
2022-10-16T17:52:08.061Z,98953.22
2022-10-16T17:54:37.477Z,98961.09
2022-10-16T17:57:05.631Z,98965.50
2022-10-16T17:59:33.812Z,98957.75
2022-10-16T18:02:01.837Z,98962.53
2022-10-16T18:04:30.085Z,98971.63
2022-10-16T18:07:00.218Z,98969.13
2022-10-16T18:09:28.967Z,98969.97
2022-10-16T18:12:00.798Z,98969.47
2022-10-16T18:14:30.746Z,98972.47
2022-10-16T18:17:00.048Z,98974.41
2022-10-16T18:19:28.855Z,98983.13
2022-10-16T18:21:56.998Z,98978.72
2022-10-16T18:24:25.881Z,98983.91
2022-10-16T18:26:56.905Z,98993.75
2022-10-16T18:29:27.739Z,99000.88
2022-10-16T18:31:56.397Z,99005.44
2022-10-16T18:34:26.881Z,99006.94
2022-10-16T18:36:55.221Z,99010.38
2022-10-16T18:39:24.818Z,99011.81
2022-10-16T18:41:55.224Z,99011.88
2022-10-16T18:44:23.267Z,99020.41
2022-10-16T18:46:57.042Z,99018.38
2022-10-16T18:49:26.367Z,99021.81
2022-10-16T18:51:56.809Z,99018.47
2022-10-16T18:54:25.841Z,99025.25
2022-10-16T18:56:54.197Z,99031.28
2022-10-16T18:59:22.535Z,99026.66
2022-10-16T19:01:52.637Z,99036.63
2022-10-16T19:04:22.459Z,99039.59
2022-10-16T19:06:52.882Z,99045.78
2022-10-16T19:09:23.334Z,99054.06
2022-10-16T19:14:25.249Z,99056.34
2022-10-16T19:16:54.682Z,99059.97
2022-10-16T19:19:23.851Z,99069.41
2022-10-16T19:21:56.540Z,99063.25
2022-10-16T19:24:24.739Z,99068.88
2022-10-16T19:26:52.774Z,99075.53
2022-10-16T19:29:20.866Z,99075.44
2022-10-16T19:31:48.827Z,99082.69
2022-10-16T19:34:18.135Z,99079.34
2022-10-16T19:36:46.287Z,99079.84
2022-10-16T19:39:16.786Z,99075.66
2022-10-16T19:41:45.086Z,99078.13
2022-10-16T19:44:15.455Z,99078.69
2022-10-16T19:46:44.570Z,99076.88
2022-10-16T19:49:15.043Z,99077.34
2022-10-16T19:51:47.190Z,99074.97
2022-10-16T19:54:15.485Z,99073.41
2022-10-16T19:56:45.273Z,99080.72
2022-10-16T19:59:16.396Z,99083.34
2022-10-16T20:01:44.718Z,99095.91
2022-10-16T20:04:13.014Z,99089.25
2022-10-16T20:06:41.505Z,99088.31
2022-10-16T20:09:11.252Z,99095.78
2022-10-16T20:11:39.484Z,99103.72
2022-10-16T20:14:08.273Z,99100.63
2022-10-16T20:16:36.545Z,99107.03
2022-10-16T20:19:05.523Z,99094.84
2022-10-16T20:21:36.884Z,99104.25
2022-10-16T20:24:06.614Z,99111.44
2022-10-16T20:26:36.882Z,99111.91
2022-10-16T20:29:05.707Z,99115.53
2022-10-16T20:31:35.261Z,99126.19
2022-10-16T20:34:05.577Z,99126.97
2022-10-16T20:36:34.382Z,99135.50
2022-10-16T20:39:02.940Z,99127.69
2022-10-16T20:41:31.035Z,99127.47
2022-10-16T20:44:00.530Z,99131.78
2022-10-16T20:46:29.771Z,99137.63
2022-10-16T20:49:06.170Z,99145.31
2022-10-16T20:51:45.606Z,99147.50
2022-10-16T20:54:13.645Z,99143.13
2022-10-16T20:56:42.567Z,99142.38
2022-10-16T20:59:13.479Z,99147.19
2022-10-16T21:01:41.881Z,99154.38
2022-10-16T21:04:10.440Z,99154.41
2022-10-16T21:06:40.613Z,99148.09
2022-10-16T21:09:09.286Z,99155.47
2022-10-16T21:11:38.102Z,99156.47
2022-10-16T21:14:08.912Z,99155.47
2022-10-16T21:16:38.371Z,99164.31
2022-10-16T21:19:06.572Z,99158.31
2022-10-16T21:21:37.936Z,99164.41
2022-10-16T21:24:07.266Z,99159.69
2022-10-16T21:26:35.372Z,99170.63
2022-10-16T21:29:05.901Z,99176.22
2022-10-16T21:31:34.628Z,99169.41
2022-10-16T21:34:04.097Z,99174.22
2022-10-16T21:36:34.023Z,99178.03
2022-10-16T21:39:03.390Z,99180.28
2022-10-16T21:41:32.387Z,99182.78
2022-10-16T21:44:00.974Z,99182.06
2022-10-16T21:46:31.758Z,99186.19
2022-10-16T21:49:01.516Z,99187.69
2022-10-16T21:51:33.860Z,99187.44
2022-10-16T21:54:02.630Z,99198.56
2022-10-16T21:56:31.081Z,99204.41
2022-10-16T21:58:59.540Z,99206.41
2022-10-16T22:01:28.853Z,99207.19
2022-10-16T22:03:56.997Z,99199.81
2022-10-16T22:06:27.625Z,99199.78
2022-10-16T22:08:59.743Z,99208.69
2022-10-16T22:11:31.329Z,99210.22
2022-10-16T22:13:59.519Z,99211.50
2022-10-16T22:16:28.027Z,99213.00
2022-10-16T22:18:58.118Z,99223.41
2022-10-16T22:21:26.647Z,99220.84
2022-10-16T22:23:54.899Z,99222.88
2022-10-16T22:26:24.216Z,99219.34
2022-10-16T22:28:52.251Z,99223.38
2022-10-16T22:31:21.692Z,99228.44
2022-10-16T22:33:49.660Z,99222.59
2022-10-16T22:36:17.671Z,99225.09
2022-10-16T22:38:45.621Z,99225.38
2022-10-16T22:41:15.604Z,99224.38
2022-10-16T22:43:48.149Z,99233.97
2022-10-16T22:46:18.102Z,99228.19
2022-10-16T22:48:46.826Z,99229.16
2022-10-16T22:51:16.917Z,99226.56
2022-10-16T22:53:46.508Z,99228.13
2022-10-16T22:56:15.866Z,99233.19
2022-10-16T22:58:45.602Z,99232.66
2022-10-16T23:01:16.165Z,99229.53
2022-10-16T23:03:44.198Z,99232.41
2022-10-16T23:06:12.630Z,99227.06
2022-10-16T23:08:40.829Z,99234.38
2022-10-16T23:11:10.326Z,99228.38
2022-10-16T23:13:39.008Z,99232.69
2022-10-16T23:16:09.076Z,99227.84
2022-10-16T23:18:37.036Z,99228.91
2022-10-16T23:21:09.940Z,99231.69
2022-10-16T23:23:38.951Z,99234.06
2022-10-16T23:26:11.123Z,99243.25
2022-10-16T23:28:39.866Z,99246.16
2022-10-16T23:31:09.902Z,99238.72
2022-10-16T23:33:38.742Z,99241.00
2022-10-16T23:36:08.600Z,99241.91
2022-10-16T23:38:36.701Z,99237.53
2022-10-16T23:41:04.868Z,99238.09
2022-10-16T23:43:32.937Z,99244.44
2022-10-16T23:46:00.948Z,99247.38
2022-10-16T23:48:30.876Z,99258.75
2022-10-16T23:50:59.184Z,99259.31
2022-10-16T23:53:27.940Z,99260.84
2022-10-16T23:55:55.918Z,99262.66
2022-10-16T23:58:24.145Z,99253.53
